Time,TemperatureF,DewpointF,PressureIn,WindDirection,WindDirectionDegrees,WindSpeedMPH,WindSpeedGustMPH,Humidity,HourlyPrecipIn,Conditions,Clouds,dailyrainin,SoftwareType,DateUTC
2013-06-26 00:12:00,74.5,25.3,29.88,ESE,112,3.8,-999.0,16,-99.99,,,0.00,Acu-Link.com,2013-06-26 06:12:00,
2013-06-26 00:27:00,75.2,24.4,29.88,NE,45,3.1,-999.0,15,-99.99,,,0.00,Acu-Link.com,2013-06-26 06:27:00,
2013-06-26 00:42:00,75.9,25.0,29.89,ENE,67,2.2,-999.0,15,-99.99,,,0.00,Acu-Link.com,2013-06-26 06:42:00,
2013-06-26 00:58:00,76.3,25.2,29.88,WNW,292,2.2,-999.0,15,-99.99,,,0.00,Acu-Link.com,2013-06-26 06:58:00,
2013-06-26 01:13:00,75.6,24.7,29.89,West,270,2.2,-999.0,15,-99.99,,,0.00,Acu-Link.com,2013-06-26 07:13:00,
2013-06-26 01:28:00,74.3,23.7,29.89,West,270,0.0,-999.0,15,-99.99,,,0.00,Acu-Link.com,2013-06-26 07:28:00,
2013-06-26 01:43:00,72.3,25.1,29.89,WSW,247,0.0,-999.0,17,-99.99,,,0.00,Acu-Link.com,2013-06-26 07:43:00,
2013-06-26 01:58:00,71.1,25.4,29.90,WSW,247,0.0,-999.0,18,-99.99,,,0.00,Acu-Link.com,2013-06-26 07:58:00,
2013-06-26 02:14:00,71.1,25.4,29.90,WSW,247,1.6,-999.0,18,-99.99,,,0.00,Acu-Link.com,2013-06-26 08:14:00,
2013-06-26 02:29:00,71.4,25.7,29.90,West,270,2.2,-999.0,18,-99.99,,,0.00,Acu-Link.com,2013-06-26 08:29:00,
2013-06-26 02:44:00,70.0,28.3,29.90,West,270,0.0,-999.0,21,-99.99,,,0.00,Acu-Link.com,2013-06-26 08:44:00,
2013-06-26 02:59:00,69.1,28.6,29.89,SSE,157,2.7,-999.0,22,-99.99,,,0.00,Acu-Link.com,2013-06-26 08:59:00,
2013-06-26 03:14:00,66.9,30.0,29.90,East,90,1.6,-999.0,25,-99.99,,,0.00,Acu-Link.com,2013-06-26 09:14:00,
2013-06-26 03:30:00,65.5,28.7,29.90,NW,315,0.0,-999.0,25,-99.99,,,0.00,Acu-Link.com,2013-06-26 09:30:00,
2013-06-26 03:45:00,64.6,28.9,29.91,SSE,157,2.7,-999.0,26,-99.99,,,0.00,Acu-Link.com,2013-06-26 09:45:00,
2013-06-26 04:00:00,64.6,28.0,29.92,West,270,0.0,-999.0,25,-99.99,,,0.00,Acu-Link.com,2013-06-26 10:00:00,
2013-06-26 04:15:00,63.7,27.2,29.91,WSW,247,0.0,-999.0,25,-99.99,,,0.00,Acu-Link.com,2013-06-26 10:15:00,
2013-06-26 04:30:00,63.0,28.5,29.93,West,270,0.0,-999.0,27,-99.99,,,0.00,Acu-Link.com,2013-06-26 10:30:00,
2013-06-26 04:45:00,63.0,27.5,29.93,West,270,1.6,-999.0,26,-99.99,,,0.00,Acu-Link.com,2013-06-26 10:45:00,
2013-06-26 05:01:00,63.7,29.1,29.93,SW,225,0.0,-999.0,27,-99.99,,,0.00,Acu-Link.com,2013-06-26 11:01:00,
2013-06-26 05:16:00,62.8,28.3,29.94,West,270,0.0,-999.0,27,-99.99,,,0.00,Acu-Link.com,2013-06-26 11:16:00,
2013-06-26 05:31:00,61.7,28.3,29.94,SE,135,0.0,-999.0,28,-99.99,,,0.00,Acu-Link.com,2013-06-26 11:31:00,
2013-06-26 05:46:00,61.3,28.8,29.95,West,270,0.0,-999.0,29,-99.99,,,0.00,Acu-Link.com,2013-06-26 11:46:00,
2013-06-26 06:02:00,61.2,26.9,29.95,East,90,0.0,-999.0,27,-99.99,,,0.00,Acu-Link.com,2013-06-26 12:02:00,
2013-06-26 06:17:00,61.2,27.8,29.96,South,180,0.0,-999.0,28,-99.99,,,0.00,Acu-Link.com,2013-06-26 12:17:00,
2013-06-26 06:32:00,63.7,31.7,29.97,East,90,0.0,-999.0,30,-99.99,,,0.00,Acu-Link.com,2013-06-26 12:32:00,
2013-06-26 06:47:00,69.3,30.9,29.98,NE,45,2.7,-999.0,24,-99.99,,,0.00,Acu-Link.com,2013-06-26 12:47:00,
2013-06-26 07:02:00,71.8,29.7,29.98,NE,45,1.1,-999.0,21,-99.99,,,0.00,Acu-Link.com,2013-06-26 13:02:00,
2013-06-26 07:18:00,74.3,30.6,30.00,West,270,0.0,-999.0,20,-99.99,,,0.00,Acu-Link.com,2013-06-26 13:18:00,
2013-06-26 07:33:00,77.2,30.4,30.00,West,270,1.1,-999.0,18,-99.99,,,0.00,Acu-Link.com,2013-06-26 13:33:00,
2013-06-26 07:48:00,78.6,31.6,30.00,ENE,67,1.6,-999.0,18,-99.99,,,0.00,Acu-Link.com,2013-06-26 13:48:00,
2013-06-26 08:03:00,77.7,34.7,30.00,East,90,2.2,-999.0,21,-99.99,,,0.00,Acu-Link.com,2013-06-26 14:03:00,
2013-06-26 08:18:00,78.3,33.9,30.01,ESE,112,5.1,-999.0,20,-99.99,,,0.00,Acu-Link.com,2013-06-26 14:18:00,
2013-06-26 08:34:00,78.6,34.2,30.01,ESE,112,3.1,-999.0,20,-99.99,,,0.00,Acu-Link.com,2013-06-26 14:34:00,
2013-06-26 08:49:00,80.2,31.5,30.01,East,90,3.8,-999.0,17,-99.99,,,0.00,Acu-Link.com,2013-06-26 14:49:00,
2013-06-26 09:04:00,83.5,29.3,30.02,East,90,2.2,-999.0,14,-99.99,,,0.00,Acu-Link.com,2013-06-26 15:04:00,
2013-06-26 09:19:00,87.4,30.5,30.02,SSE,157,2.7,-999.0,13,-99.99,,,0.00,Acu-Link.com,2013-06-26 15:19:00,
2013-06-26 09:34:00,89.4,28.0,30.02,South,180,0.0,-999.0,11,-99.99,,,0.00,Acu-Link.com,2013-06-26 15:34:00,
2013-06-26 09:50:00,92.3,30.2,30.01,West,270,2.7,-999.0,11,-99.99,,,0.00,Acu-Link.com,2013-06-26 15:50:00,
2013-06-26 10:05:00,85.1,28.7,30.02,West,270,2.7,-999.0,13,-99.99,,,0.00,Acu-Link.com,2013-06-26 16:05:00,
2013-06-26 10:20:00,87.1,30.3,30.02,ESE,112,2.7,-999.0,13,-99.99,,,0.00,Acu-Link.com,2013-06-26 16:20:00,
2013-06-26 10:35:00,88.3,29.3,30.02,SE,135,2.2,-999.0,12,-99.99,,,0.00,Acu-Link.com,2013-06-26 16:35:00,
2013-06-26 10:51:00,89.6,30.2,30.02,East,90,2.7,-999.0,12,-99.99,,,0.00,Acu-Link.com,2013-06-26 16:51:00,
2013-06-26 11:06:00,90.3,30.8,30.02,SSW,202,3.1,-999.0,12,-99.99,,,0.00,Acu-Link.com,2013-06-26 17:06:00,
2013-06-26 11:21:00,92.7,30.5,30.01,SSW,202,3.8,-999.0,11,-99.99,,,0.00,Acu-Link.com,2013-06-26 17:21:00,
2013-06-26 11:36:00,91.2,29.4,30.01,NE,45,2.7,-999.0,11,-99.99,,,0.00,Acu-Link.com,2013-06-26 17:36:00,
2013-06-26 11:51:00,94.1,31.5,30.00,SE,135,3.1,-999.0,11,-99.99,,,0.00,Acu-Link.com,2013-06-26 17:51:00,
2013-06-26 12:07:00,95.0,32.2,30.00,NW,315,2.2,-999.0,11,-99.99,,,0.00,Acu-Link.com,2013-06-26 18:07:00,
2013-06-26 12:22:00,94.8,32.1,29.99,South,180,1.6,-999.0,11,-99.99,,,0.00,Acu-Link.com,2013-06-26 18:22:00,
2013-06-26 12:37:00,97.3,31.6,29.99,SE,135,4.3,-999.0,10,-99.99,,,0.00,Acu-Link.com,2013-06-26 18:37:00,
2013-06-26 12:52:00,99.5,30.7,29.98,East,90,8.3,-999.0,9,-99.99,,,0.00,Acu-Link.com,2013-06-26 18:52:00,
2013-06-26 13:07:00,96.8,28.7,29.98,South,180,4.3,-999.0,9,-99.99,,,0.00,Acu-Link.com,2013-06-26 19:07:00,
2013-06-26 13:22:00,99.3,30.5,29.97,South,180,8.9,-999.0,9,-99.99,,,0.00,Acu-Link.com,2013-06-26 19:22:00,
2013-06-26 13:38:00,99.1,30.4,29.97,SE,135,7.8,-999.0,9,-99.99,,,0.00,Acu-Link.com,2013-06-26 19:38:00,
2013-06-26 13:53:00,99.7,33.4,29.96,SE,135,3.8,-999.0,10,-99.99,,,0.00,Acu-Link.com,2013-06-26 19:53:00,
2013-06-26 14:08:00,100.4,31.3,29.95,ENE,67,8.3,-999.0,9,-99.99,,,0.00,Acu-Link.com,2013-06-26 20:08:00,
2013-06-26 14:23:00,100.4,31.3,29.94,SSW,202,4.3,-999.0,9,-99.99,,,0.00,Acu-Link.com,2013-06-26 20:23:00,
2013-06-26 14:38:00,99.7,30.8,29.94,West,270,2.2,-999.0,9,-99.99,,,0.00,Acu-Link.com,2013-06-26 20:38:00,
2013-06-26 14:54:00,102.0,29.6,29.93,West,270,4.3,-999.0,8,-99.99,,,0.00,Acu-Link.com,2013-06-26 20:54:00,
2013-06-26 15:09:00,101.3,29.1,29.93,ESE,112,2.7,-999.0,8,-99.99,,,0.00,Acu-Link.com,2013-06-26 21:09:00,
2013-06-26 15:24:00,101.7,29.4,29.92,SW,225,1.6,-999.0,8,-99.99,,,0.00,Acu-Link.com,2013-06-26 21:24:00,
2013-06-26 15:39:00,104.7,31.6,29.92,East,90,11.0,-999.0,8,-99.99,,,0.00,Acu-Link.com,2013-06-26 21:39:00,
2013-06-26 15:54:00,101.1,29.0,29.90,SE,135,3.1,-999.0,8,-99.99,,,0.00,Acu-Link.com,2013-06-26 21:54:00,
2013-06-26 16:10:00,103.1,30.4,29.90,West,270,4.3,-999.0,8,-99.99,,,0.00,Acu-Link.com,2013-06-26 22:10:00,
2013-06-26 16:25:00,102.9,30.3,29.90,WSW,247,3.8,-999.0,8,-99.99,,,0.00,Acu-Link.com,2013-06-26 22:25:00,
2013-06-26 16:40:00,101.8,29.5,29.89,South,180,1.6,-999.0,8,-99.99,,,0.00,Acu-Link.com,2013-06-26 22:40:00,
2013-06-26 16:55:00,102.9,30.3,29.89,SW,225,5.8,-999.0,8,-99.99,,,0.00,Acu-Link.com,2013-06-26 22:55:00,
2013-06-26 17:10:00,105.3,28.7,29.88,WNW,292,12.5,-999.0,7,-99.99,,,0.00,Acu-Link.com,2013-06-26 23:10:00,
2013-06-26 17:26:00,108.1,30.8,29.88,West,270,1.6,-999.0,7,-99.99,,,0.00,Acu-Link.com,2013-06-26 23:26:00,
2013-06-26 17:41:00,106.0,29.2,29.87,WSW,247,4.3,-999.0,7,-99.99,,,0.00,Acu-Link.com,2013-06-26 23:41:00,
2013-06-26 17:56:00,106.9,29.9,29.87,West,270,2.2,-999.0,7,-99.99,,,0.00,Acu-Link.com,2013-06-26 23:56:00,
2013-06-26 18:11:00,105.6,29.0,29.86,SW,225,2.7,-999.0,7,-99.99,,,0.00,Acu-Link.com,2013-06-27 00:11:00,
2013-06-26 18:27:00,106.3,29.5,29.86,WSW,247,5.1,-999.0,7,-99.99,,,0.00,Acu-Link.com,2013-06-27 00:27:00,
2013-06-26 18:42:00,106.0,29.2,29.86,West,270,2.2,-999.0,7,-99.99,,,0.00,Acu-Link.com,2013-06-27 00:42:00,
2013-06-26 18:57:00,105.6,29.0,29.86,SW,225,4.3,-999.0,7,-99.99,,,0.00,Acu-Link.com,2013-06-27 00:57:00,
2013-06-26 19:12:00,104.9,28.4,29.86,NW,315,2.2,-999.0,7,-99.99,,,0.00,Acu-Link.com,2013-06-27 01:12:00,
2013-06-26 19:27:00,100.6,31.5,29.87,WSW,247,3.1,-999.0,9,-99.99,,,0.00,Acu-Link.com,2013-06-27 01:27:00,
2013-06-26 19:43:00,97.9,32.0,29.86,SSE,157,3.1,-999.0,10,-99.99,,,0.00,Acu-Link.com,2013-06-27 01:43:00,
2013-06-26 19:58:00,94.8,32.1,29.87,South,180,2.2,-999.0,11,-99.99,,,0.00,Acu-Link.com,2013-06-27 01:58:00,
2013-06-26 20:13:00,92.7,32.6,29.86,SSW,202,3.8,-999.0,12,-99.99,,,0.00,Acu-Link.com,2013-06-27 02:13:00,
2013-06-26 20:28:00,91.0,31.4,29.87,SSW,202,3.1,-999.0,12,-99.99,,,0.00,Acu-Link.com,2013-06-27 02:28:00,
2013-06-26 20:43:00,90.1,30.7,29.87,SSW,202,2.2,-999.0,12,-99.99,,,0.00,Acu-Link.com,2013-06-27 02:43:00,
2013-06-26 20:59:00,88.9,31.7,29.88,SW,225,2.2,-999.0,13,-99.99,,,0.00,Acu-Link.com,2013-06-27 02:59:00,
2013-06-26 21:14:00,87.3,32.2,29.89,West,270,2.7,-999.0,14,-99.99,,,0.00,Acu-Link.com,2013-06-27 03:14:00,
2013-06-26 21:29:00,87.1,26.2,29.90,West,270,4.3,-999.0,11,-99.99,,,0.00,Acu-Link.com,2013-06-27 03:29:00,
2013-06-26 21:44:00,87.8,26.7,29.91,West,270,2.7,-999.0,11,-99.99,,,0.00,Acu-Link.com,2013-06-27 03:44:00,
2013-06-26 21:59:00,86.9,26.1,29.91,WSW,247,1.6,-999.0,11,-99.99,,,0.00,Acu-Link.com,2013-06-27 03:59:00,
2013-06-26 22:15:00,86.4,25.6,29.92,NW,315,2.7,-999.0,11,-99.99,,,0.00,Acu-Link.com,2013-06-27 04:15:00,
2013-06-26 22:30:00,85.5,27.1,29.92,ESE,112,1.6,-999.0,12,-99.99,,,0.00,Acu-Link.com,2013-06-27 04:30:00,
2013-06-26 22:45:00,85.5,27.1,29.92,NW,315,2.2,-999.0,12,-99.99,,,0.00,Acu-Link.com,2013-06-27 04:45:00,
2013-06-26 23:00:00,84.6,28.3,29.93,West,270,2.2,-999.0,13,-99.99,,,0.00,Acu-Link.com,2013-06-27 05:00:00,
2013-06-26 23:15:00,84.0,27.9,29.93,West,270,2.2,-999.0,13,-99.99,,,0.00,Acu-Link.com,2013-06-27 05:15:00,
2013-06-26 23:30:00,83.3,27.3,29.94,West,270,1.6,-999.0,13,-99.99,,,0.00,Acu-Link.com,2013-06-27 05:30:00,
2013-06-26 23:46:00,82.0,28.1,29.93,West,270,2.2,-999.0,14,-99.99,,,0.00,Acu-Link.com,2013-06-27 05:46:00,